sensor_id;sensor_type;location;lat;lon;timestamp;pressure;altitude;pressure_sealevel;temperature;humidity
69957;BME280;57283;54.816;9.482;2022-12-11T00:00:27;100872.63;;;-5.44;100.00
69957;BME280;57283;54.816;9.482;2022-12-11T00:02:56;100889.75;;;-5.40;100.00
69957;BME280;57283;54.816;9.482;2022-12-11T00:05:23;100858.09;;;-5.68;100.00
69957;BME280;57283;54.816;9.482;2022-12-11T00:07:51;100900.47;;;-5.47;100.00
69957;BME280;57283;54.816;9.482;2022-12-11T00:10:19;100887.75;;;-5.47;100.00
69957;BME280;57283;54.816;9.482;2022-12-11T00:12:47;100883.34;;;-5.51;100.00
69957;BME280;57283;54.816;9.482;2022-12-11T00:15:16;100883.06;;;-5.59;100.00
69957;BME280;57283;54.816;9.482;2022-12-11T00:17:44;100881.19;;;-5.63;100.00
69957;BME280;57283;54.816;9.482;2022-12-11T00:20:12;100879.44;;;-5.64;100.00
69957;BME280;57283;54.816;9.482;2022-12-11T00:22:39;100893.09;;;-5.62;100.00
69957;BME280;57283;54.816;9.482;2022-12-11T00:25:08;100886.88;;;-5.69;100.00
69957;BME280;57283;54.816;9.482;2022-12-11T00:27:36;100878.22;;;-5.74;100.00
69957;BME280;57283;54.816;9.482;2022-12-11T00:30:05;100884.25;;;-5.72;100.00
69957;BME280;57283;54.816;9.482;2022-12-11T00:32:35;100881.56;;;-5.75;100.00
69957;BME280;57283;54.816;9.482;2022-12-11T00:35:03;100880.63;;;-5.77;100.00
69957;BME280;57283;54.816;9.482;2022-12-11T00:37:31;100872.88;;;-5.80;100.00
69957;BME280;57283;54.816;9.482;2022-12-11T00:39:59;100878.69;;;-5.82;100.00
69957;BME280;57283;54.816;9.482;2022-12-11T00:42:27;100879.34;;;-5.88;100.00
69957;BME280;57283;54.816;9.482;2022-12-11T00:44:55;100885.13;;;-5.92;100.00
69957;BME280;57283;54.816;9.482;2022-12-11T00:47:23;100888.47;;;-5.93;100.00
69957;BME280;57283;54.816;9.482;2022-12-11T00:49:52;100881.53;;;-5.97;100.00
69957;BME280;57283;54.816;9.482;2022-12-11T00:52:20;100885.66;;;-5.99;100.00
69957;BME280;57283;54.816;9.482;2022-12-11T00:54:48;100879.72;;;-6.00;100.00
69957;BME280;57283;54.816;9.482;2022-12-11T00:57:16;100878.97;;;-5.97;100.00
69957;BME280;57283;54.816;9.482;2022-12-11T00:59:44;100875.75;;;-5.93;100.00
69957;BME280;57283;54.816;9.482;2022-12-11T01:02:12;100884.19;;;-5.94;100.00
69957;BME280;57283;54.816;9.482;2022-12-11T01:04:40;100881.59;;;-5.95;100.00
69957;BME280;57283;54.816;9.482;2022-12-11T01:07:09;100878.09;;;-5.97;100.00
69957;BME280;57283;54.816;9.482;2022-12-11T01:09:37;100873.88;;;-5.97;100.00
69957;BME280;57283;54.816;9.482;2022-12-11T01:12:22;100876.44;;;-5.97;100.00
69957;BME280;57283;54.816;9.482;2022-12-11T01:14:51;100872.16;;;-5.98;100.00
69957;BME280;57283;54.816;9.482;2022-12-11T01:17:19;100866.84;;;-6.04;100.00
69957;BME280;57283;54.816;9.482;2022-12-11T01:19:47;100866.69;;;-6.07;100.00
69957;BME280;57283;54.816;9.482;2022-12-11T01:22:16;100869.41;;;-6.03;100.00
69957;BME280;57283;54.816;9.482;2022-12-11T01:24:44;100865.84;;;-6.08;100.00
69957;BME280;57283;54.816;9.482;2022-12-11T01:27:12;100866.56;;;-6.10;100.00
69957;BME280;57283;54.816;9.482;2022-12-11T01:29:40;100878.47;;;-6.09;100.00
69957;BME280;57283;54.816;9.482;2022-12-11T01:32:08;100884.44;;;-6.09;100.00
69957;BME280;57283;54.816;9.482;2022-12-11T01:34:35;100882.56;;;-6.13;100.00
69957;BME280;57283;54.816;9.482;2022-12-11T01:37:03;100883.41;;;-6.12;100.00
69957;BME280;57283;54.816;9.482;2022-12-11T01:39:32;100892.66;;;-6.14;100.00
69957;BME280;57283;54.816;9.482;2022-12-11T01:42:00;100893.53;;;-6.14;100.00
69957;BME280;57283;54.816;9.482;2022-12-11T01:47:34;100885.69;;;-6.18;100.00
69957;BME280;57283;54.816;9.482;2022-12-11T01:50:01;100885.03;;;-6.14;100.00
69957;BME280;57283;54.816;9.482;2022-12-11T01:52:30;100886.50;;;-6.19;100.00
69957;BME280;57283;54.816;9.482;2022-12-11T01:55:00;100887.19;;;-6.23;100.00
69957;BME280;57283;54.816;9.482;2022-12-11T01:57:28;100879.44;;;-6.26;100.00
69957;BME280;57283;54.816;9.482;2022-12-11T01:59:56;100851.50;;;-6.46;100.00
69957;BME280;57283;54.816;9.482;2022-12-11T02:02:27;100875.69;;;-6.35;100.00
69957;BME280;57283;54.816;9.482;2022-12-11T02:04:56;100870.59;;;-6.35;100.00
69957;BME280;57283;54.816;9.482;2022-12-11T02:07:23;100870.00;;;-6.29;100.00
69957;BME280;57283;54.816;9.482;2022-12-11T02:09:51;100864.84;;;-6.30;100.00
69957;BME280;57283;54.816;9.482;2022-12-11T02:12:25;100856.97;;;-6.37;100.00
69957;BME280;57283;54.816;9.482;2022-12-11T02:15:01;100840.75;;;-6.40;100.00
69957;BME280;57283;54.816;9.482;2022-12-11T02:17:35;100854.56;;;-6.34;100.00
69957;BME280;57283;54.816;9.482;2022-12-11T02:20:08;100853.75;;;-6.32;100.00
69957;BME280;57283;54.816;9.482;2022-12-11T02:22:57;100858.69;;;-6.36;100.00
69957;BME280;57283;54.816;9.482;2022-12-11T02:25:36;100860.44;;;-6.35;100.00
69957;BME280;57283;54.816;9.482;2022-12-11T02:28:16;100860.19;;;-6.41;100.00
69957;BME280;57283;54.816;9.482;2022-12-11T02:30:48;100867.25;;;-6.34;100.00
69957;BME280;57283;54.816;9.482;2022-12-11T02:33:22;100856.84;;;-6.40;100.00
69957;BME280;57283;54.816;9.482;2022-12-11T02:35:53;100854.38;;;-6.38;100.00
69957;BME280;57283;54.816;9.482;2022-12-11T02:38:24;100843.94;;;-6.44;100.00
69957;BME280;57283;54.816;9.482;2022-12-11T02:40:55;100844.22;;;-6.38;100.00
69957;BME280;57283;54.816;9.482;2022-12-11T02:43:26;100855.13;;;-6.41;100.00
69957;BME280;57283;54.816;9.482;2022-12-11T02:45:54;100850.69;;;-6.45;100.00
69957;BME280;57283;54.816;9.482;2022-12-11T02:48:24;100846.28;;;-6.49;100.00
69957;BME280;57283;54.816;9.482;2022-12-11T02:50:55;100856.56;;;-6.46;100.00
69957;BME280;57283;54.816;9.482;2022-12-11T02:53:26;100848.97;;;-6.46;100.00
69957;BME280;57283;54.816;9.482;2022-12-11T02:56:01;100854.84;;;-6.47;100.00
69957;BME280;57283;54.816;9.482;2022-12-11T02:58:33;100833.00;;;-6.62;100.00
69957;BME280;57283;54.816;9.482;2022-12-11T03:01:02;100844.00;;;-6.43;100.00
69957;BME280;57283;54.816;9.482;2022-12-11T03:03:29;100854.25;;;-6.41;100.00
69957;BME280;57283;54.816;9.482;2022-12-11T03:05:57;100852.38;;;-6.45;100.00
69957;BME280;57283;54.816;9.482;2022-12-11T03:08:25;100831.47;;;-6.59;100.00
69957;BME280;57283;54.816;9.482;2022-12-11T03:10:53;100847.28;;;-6.45;100.00
69957;BME280;57283;54.816;9.482;2022-12-11T03:13:21;100849.91;;;-6.44;100.00
69957;BME280;57283;54.816;9.482;2022-12-11T03:16:04;100818.69;;;-6.60;100.00
69957;BME280;57283;54.816;9.482;2022-12-11T03:18:41;100833.38;;;-6.53;100.00
69957;BME280;57283;54.816;9.482;2022-12-11T03:21:14;100834.25;;;-6.53;100.00
69957;BME280;57283;54.816;9.482;2022-12-11T03:23:49;100835.06;;;-6.54;100.00
69957;BME280;57283;54.816;9.482;2022-12-11T03:26:21;100838.59;;;-6.50;100.00
69957;BME280;57283;54.816;9.482;2022-12-11T03:28:55;100757.84;;;-6.97;100.00
69957;BME280;57283;54.816;9.482;2022-12-11T03:31:30;100830.00;;;-6.54;100.00
69957;BME280;57283;54.816;9.482;2022-12-11T03:34:02;100803.00;;;-6.71;100.00
69957;BME280;57283;54.816;9.482;2022-12-11T03:36:35;100819.16;;;-6.69;100.00
69957;BME280;57283;54.816;9.482;2022-12-11T03:39:07;100790.56;;;-6.84;100.00
69957;BME280;57283;54.816;9.482;2022-12-11T03:41:36;100808.59;;;-6.78;100.00
69957;BME280;57283;54.816;9.482;2022-12-11T03:44:06;100793.31;;;-6.80;100.00
69957;BME280;57283;54.816;9.482;2022-12-11T03:46:38;100818.47;;;-6.65;100.00
69957;BME280;57283;54.816;9.482;2022-12-11T03:49:09;100827.47;;;-6.54;100.00
69957;BME280;57283;54.816;9.482;2022-12-11T03:51:42;100832.41;;;-6.57;100.00
69957;BME280;57283;54.816;9.482;2022-12-11T03:54:11;100824.50;;;-6.63;100.00
69957;BME280;57283;54.816;9.482;2022-12-11T03:56:42;100833.84;;;-6.62;100.00
69957;BME280;57283;54.816;9.482;2022-12-11T03:59:12;100842.56;;;-6.57;100.00
69957;BME280;57283;54.816;9.482;2022-12-11T04:01:41;100828.06;;;-6.59;100.00
69957;BME280;57283;54.816;9.482;2022-12-11T04:04:09;100841.75;;;-6.56;100.00
69957;BME280;57283;54.816;9.482;2022-12-11T04:06:37;100839.22;;;-6.56;100.00
69957;BME280;57283;54.816;9.482;2022-12-11T04:09:05;100776.69;;;-6.92;100.00
69957;BME280;57283;54.816;9.482;2022-12-11T04:11:33;100823.56;;;-6.65;100.00
69957;BME280;57283;54.816;9.482;2022-12-11T04:14:01;100839.88;;;-6.60;100.00
69957;BME280;57283;54.816;9.482;2022-12-11T04:16:48;100840.09;;;-6.55;100.00
69957;BME280;57283;54.816;9.482;2022-12-11T04:19:16;100841.94;;;-6.51;100.00
69957;BME280;57283;54.816;9.482;2022-12-11T04:22:03;100835.88;;;-6.55;100.00
69957;BME280;57283;54.816;9.482;2022-12-11T04:24:53;100816.59;;;-6.69;100.00
69957;BME280;57283;54.816;9.482;2022-12-11T04:27:21;100831.31;;;-6.62;100.00
69957;BME280;57283;54.816;9.482;2022-12-11T04:30:09;100766.19;;;-7.00;100.00
69957;BME280;57283;54.816;9.482;2022-12-11T04:32:38;100735.72;;;-7.19;100.00
69957;BME280;57283;54.816;9.482;2022-12-11T04:35:08;100839.22;;;-6.56;100.00
69957;BME280;57283;54.816;9.482;2022-12-11T04:37:36;100797.66;;;-6.77;100.00
69957;BME280;57283;54.816;9.482;2022-12-11T04:40:07;100840.09;;;-6.55;100.00
69957;BME280;57283;54.816;9.482;2022-12-11T04:42:36;100837.41;;;-6.58;100.00
69957;BME280;57283;54.816;9.482;2022-12-11T04:45:05;100825.38;;;-6.62;100.00
69957;BME280;57283;54.816;9.482;2022-12-11T04:47:35;100835.75;;;-6.58;100.00
69957;BME280;57283;54.816;9.482;2022-12-11T04:50:06;100834.13;;;-6.56;100.00
69957;BME280;57283;54.816;9.482;2022-12-11T04:52:34;100816.00;;;-6.63;100.00
69957;BME280;57283;54.816;9.482;2022-12-11T04:55:02;100840.41;;;-6.48;100.00
69957;BME280;57283;54.816;9.482;2022-12-11T04:57:30;100836.31;;;-6.44;100.00
69957;BME280;57283;54.816;9.482;2022-12-11T04:59:58;100832.38;;;-6.38;100.00
69957;BME280;57283;54.816;9.482;2022-12-11T05:02:26;100819.91;;;-6.31;100.00
69957;BME280;57283;54.816;9.482;2022-12-11T05:04:54;100832.84;;;-6.06;100.00
69957;BME280;57283;54.816;9.482;2022-12-11T05:07:23;100831.31;;;-5.80;100.00
69957;BME280;57283;54.816;9.482;2022-12-11T05:09:51;100831.66;;;-5.50;100.00
69957;BME280;57283;54.816;9.482;2022-12-11T05:12:19;100817.84;;;-5.35;100.00
69957;BME280;57283;54.816;9.482;2022-12-11T05:14:49;100829.72;;;-5.13;100.00
69957;BME280;57283;54.816;9.482;2022-12-11T05:17:18;100821.38;;;-5.09;100.00
69957;BME280;57283;54.816;9.482;2022-12-11T05:19:46;100830.41;;;-4.95;100.00
69957;BME280;57283;54.816;9.482;2022-12-11T05:22:14;100829.66;;;-4.92;100.00
69957;BME280;57283;54.816;9.482;2022-12-11T05:24:44;100820.44;;;-4.88;100.00
69957;BME280;57283;54.816;9.482;2022-12-11T05:27:12;100828.91;;;-4.89;100.00
69957;BME280;57283;54.816;9.482;2022-12-11T05:29:39;100839.09;;;-4.89;100.00
69957;BME280;57283;54.816;9.482;2022-12-11T05:32:07;100832.38;;;-4.87;100.00
69957;BME280;57283;54.816;9.482;2022-12-11T05:34:35;100824.50;;;-4.94;100.00
69957;BME280;57283;54.816;9.482;2022-12-11T05:37:03;100808.91;;;-5.03;100.00
69957;BME280;57283;54.816;9.482;2022-12-11T05:39:31;100830.56;;;-4.90;100.00
69957;BME280;57283;54.816;9.482;2022-12-11T05:42:01;100825.31;;;-4.95;100.00
69957;BME280;57283;54.816;9.482;2022-12-11T05:44:28;100808.13;;;-5.00;100.00
69957;BME280;57283;54.816;9.482;2022-12-11T05:46:56;100828.66;;;-4.96;100.00
69957;BME280;57283;54.816;9.482;2022-12-11T05:49:24;100810.50;;;-5.05;100.00
69957;BME280;57283;54.816;9.482;2022-12-11T05:51:56;100826.00;;;-4.99;100.00
69957;BME280;57283;54.816;9.482;2022-12-11T05:54:24;100820.22;;;-4.95;100.00
69957;BME280;57283;54.816;9.482;2022-12-11T05:56:52;100820.31;;;-4.92;100.00
69957;BME280;57283;54.816;9.482;2022-12-11T05:59:21;100815.25;;;-4.92;100.00
69957;BME280;57283;54.816;9.482;2022-12-11T06:01:49;100810.16;;;-4.92;100.00
69957;BME280;57283;54.816;9.482;2022-12-11T06:04:17;100811.06;;;-4.89;100.00
69957;BME280;57283;54.816;9.482;2022-12-11T06:06:45;100814.44;;;-4.90;100.00
69957;BME280;57283;54.816;9.482;2022-12-11T06:09:14;100821.84;;;-4.97;100.00
69957;BME280;57283;54.816;9.482;2022-12-11T06:11:42;100803.88;;;-5.00;100.00
69957;BME280;57283;54.816;9.482;2022-12-11T06:14:10;100811.53;;;-5.00;100.00
69957;BME280;57283;54.816;9.482;2022-12-11T06:16:41;100817.38;;;-5.02;100.00
69957;BME280;57283;54.816;9.482;2022-12-11T06:19:12;100822.47;;;-5.02;100.00
69957;BME280;57283;54.816;9.482;2022-12-11T06:21:41;100818.25;;;-5.02;100.00
69957;BME280;57283;54.816;9.482;2022-12-11T06:24:09;100818.25;;;-5.02;100.00
69957;BME280;57283;54.816;9.482;2022-12-11T06:26:37;100811.44;;;-5.03;100.00
69957;BME280;57283;54.816;9.482;2022-12-11T06:29:05;100823.34;;;-5.02;100.00
69957;BME280;57283;54.816;9.482;2022-12-11T06:31:38;100821.63;;;-5.03;100.00
69957;BME280;57283;54.816;9.482;2022-12-11T06:34:08;100827.53;;;-5.04;100.00
69957;BME280;57283;54.816;9.482;2022-12-11T06:36:36;100832.63;;;-5.04;100.00
69957;BME280;57283;54.816;9.482;2022-12-11T06:39:04;100831.75;;;-5.04;100.00
69957;BME280;57283;54.816;9.482;2022-12-11T06:41:31;100802.06;;;-5.26;100.00
69957;BME280;57283;54.816;9.482;2022-12-11T06:43:59;100839.31;;;-5.06;100.00
69957;BME280;57283;54.816;9.482;2022-12-11T06:46:27;100839.91;;;-5.13;100.00
69957;BME280;57283;54.816;9.482;2022-12-11T06:48:55;100848.59;;;-5.08;100.00
69957;BME280;57283;54.816;9.482;2022-12-11T06:51:24;100846.84;;;-5.09;100.00
69957;BME280;57283;54.816;9.482;2022-12-11T06:53:54;100850.19;;;-5.10;100.00
69957;BME280;57283;54.816;9.482;2022-12-11T06:56:23;100853.44;;;-5.14;100.00
69957;BME280;57283;54.816;9.482;2022-12-11T06:58:51;100810.06;;;-5.39;100.00
69957;BME280;57283;54.816;9.482;2022-12-11T07:01:21;100846.47;;;-5.19;100.00
69957;BME280;57283;54.816;9.482;2022-12-11T07:03:51;100857.47;;;-5.19;100.00
69957;BME280;57283;54.816;9.482;2022-12-11T07:06:19;100858.31;;;-5.20;100.00
69957;BME280;57283;54.816;9.482;2022-12-11T07:08:48;100854.84;;;-5.22;100.00
69957;BME280;57283;54.816;9.482;2022-12-11T07:11:17;100848.75;;;-5.25;100.00
69957;BME280;57283;54.816;9.482;2022-12-11T07:13:46;100833.03;;;-5.38;100.00
69957;BME280;57283;54.816;9.482;2022-12-11T07:16:15;100855.06;;;-5.38;100.00
69957;BME280;57283;54.816;9.482;2022-12-11T07:18:46;100861.63;;;-5.43;100.00
69957;BME280;57283;54.816;9.482;2022-12-11T07:21:14;100849.72;;;-5.44;100.00
69957;BME280;57283;54.816;9.482;2022-12-11T07:23:42;100862.44;;;-5.44;100.00
69957;BME280;57283;54.816;9.482;2022-12-11T07:26:13;100858.28;;;-5.42;100.00
69957;BME280;57283;54.816;9.482;2022-12-11T07:28:41;100853.19;;;-5.42;100.00
69957;BME280;57283;54.816;9.482;2022-12-11T07:31:11;100843.06;;;-5.41;100.00
69957;BME280;57283;54.816;9.482;2022-12-11T07:33:40;100767.69;;;-5.82;100.00
69957;BME280;57283;54.816;9.482;2022-12-11T07:36:11;100852.22;;;-5.23;100.00
69957;BME280;57283;54.816;9.482;2022-12-11T07:38:39;100840.19;;;-5.28;100.00
69957;BME280;57283;54.816;9.482;2022-12-11T07:41:10;100852.56;;;-5.14;100.00
69957;BME280;57283;54.816;9.482;2022-12-11T07:43:41;100855.84;;;-5.17;100.00
69957;BME280;57283;54.816;9.482;2022-12-11T07:46:10;100853.44;;;-5.14;100.00
69957;BME280;57283;54.816;9.482;2022-12-11T07:48:40;100847.03;;;-5.04;100.00
69957;BME280;57283;54.816;9.482;2022-12-11T07:51:09;100840.19;;;-5.05;100.00
69957;BME280;57283;54.816;9.482;2022-12-11T07:53:37;100845.38;;;-5.02;100.00
69957;BME280;57283;54.816;9.482;2022-12-11T07:56:05;100844.75;;;-4.97;100.00
69957;BME280;57283;54.816;9.482;2022-12-11T07:58:34;100828.53;;;-4.99;100.00
69957;BME280;57283;54.816;9.482;2022-12-11T08:01:04;100849.16;;;-4.93;100.00
69957;BME280;57283;54.816;9.482;2022-12-11T08:03:31;100838.34;;;-4.87;100.00
69957;BME280;57283;54.816;9.482;2022-12-11T08:05:59;100827.03;;;-4.94;100.00
69957;BME280;57283;54.816;9.482;2022-12-11T08:08:28;100846.00;;;-4.85;100.00
69957;BME280;57283;54.816;9.482;2022-12-11T08:10:59;100844.63;;;-4.77;100.00
69957;BME280;57283;54.816;9.482;2022-12-11T08:13:27;100834.97;;;-4.62;100.00
69957;BME280;57283;54.816;9.482;2022-12-11T08:15:55;100759.34;;;-4.63;100.00
69957;BME280;57283;54.816;9.482;2022-12-11T08:18:24;100837.13;;;-3.47;100.00
69957;BME280;57283;54.816;9.482;2022-12-11T08:20:52;100848.97;;;-3.49;100.00
69957;BME280;57283;54.816;9.482;2022-12-11T08:23:19;100802.66;;;-3.62;100.00
69957;BME280;57283;54.816;9.482;2022-12-11T08:25:47;100828.22;;;-3.05;100.00
69957;BME280;57283;54.816;9.482;2022-12-11T08:28:15;100825.94;;;-2.64;100.00
69957;BME280;57283;54.816;9.482;2022-12-11T08:30:43;100838.19;;;-2.54;100.00
69957;BME280;57283;54.816;9.482;2022-12-11T08:33:11;100836.28;;;-2.61;100.00
69957;BME280;57283;54.816;9.482;2022-12-11T08:35:40;100834.63;;;-2.59;100.00
69957;BME280;57283;54.816;9.482;2022-12-11T08:38:09;100843.75;;;-2.37;100.00
69957;BME280;57283;54.816;9.482;2022-12-11T08:40:37;100831.94;;;-1.65;100.00
69957;BME280;57283;54.816;9.482;2022-12-11T08:43:05;100829.31;;;-0.49;100.00
69957;BME280;57283;54.816;9.482;2022-12-11T08:45:33;100830.88;;;-0.57;100.00
69957;BME280;57283;54.816;9.482;2022-12-11T08:48:00;100825.72;;;1.66;100.00
69957;BME280;57283;54.816;9.482;2022-12-11T08:50:28;100825.41;;;1.38;100.00
69957;BME280;57283;54.816;9.482;2022-12-11T08:52:57;100822.09;;;2.39;100.00
69957;BME280;57283;54.816;9.482;2022-12-11T08:55:25;100790.81;;;3.36;100.00
69957;BME280;57283;54.816;9.482;2022-12-11T08:57:53;100809.88;;;3.87;100.00
69957;BME280;57283;54.816;9.482;2022-12-11T09:00:21;100805.81;;;2.42;100.00
69957;BME280;57283;54.816;9.482;2022-12-11T09:02:49;100815.81;;;3.46;100.00
69957;BME280;57283;54.816;9.482;2022-12-11T09:05:17;100798.72;;;4.47;100.00
69957;BME280;57283;54.816;9.482;2022-12-11T09:07:45;100808.59;;;5.78;100.00
69957;BME280;57283;54.816;9.482;2022-12-11T09:10:14;100820.94;;;3.31;100.00
69957;BME280;57283;54.816;9.482;2022-12-11T09:12:42;100806.84;;;5.82;100.00
69957;BME280;57283;54.816;9.482;2022-12-11T09:15:10;100813.31;;;4.85;100.00
69957;BME280;57283;54.816;9.482;2022-12-11T09:17:39;100817.16;;;5.91;100.00
69957;BME280;57283;54.816;9.482;2022-12-11T09:20:07;100808.16;;;7.22;79.69
69957;BME280;57283;54.816;9.482;2022-12-11T09:22:35;100786.16;;;8.62;65.70
69957;BME280;57283;54.816;9.482;2022-12-11T09:25:04;100796.22;;;8.81;58.94
69957;BME280;57283;54.816;9.482;2022-12-11T09:27:34;100799.38;;;7.95;62.11
69957;BME280;57283;54.816;9.482;2022-12-11T09:30:02;100806.38;;;3.58;100.00
69957;BME280;57283;54.816;9.482;2022-12-11T09:32:30;100813.84;;;5.68;100.00
69957;BME280;57283;54.816;9.482;2022-12-11T09:34:58;100807.34;;;7.86;69.58
69957;BME280;57283;54.816;9.482;2022-12-11T09:37:26;100793.88;;;6.86;66.03
69957;BME280;57283;54.816;9.482;2022-12-11T09:39:54;100793.19;;;7.42;66.39
69957;BME280;57283;54.816;9.482;2022-12-11T09:42:28;100799.28;;;3.02;100.00
69957;BME280;57283;54.816;9.482;2022-12-11T09:45:01;100792.16;;;5.81;95.18
69957;BME280;57283;54.816;9.482;2022-12-11T09:47:33;100784.94;;;4.26;100.00
69957;BME280;57283;54.816;9.482;2022-12-11T09:50:06;100787.53;;;3.98;100.00
69957;BME280;57283;54.816;9.482;2022-12-11T09:52:50;100782.03;;;6.60;100.00
69957;BME280;57283;54.816;9.482;2022-12-11T09:55:23;100771.75;;;6.51;79.54
69957;BME280;57283;54.816;9.482;2022-12-11T09:57:58;100774.91;;;7.51;63.00
69957;BME280;57283;54.816;9.482;2022-12-11T10:00:32;100794.03;;;5.54;78.17
69957;BME280;57283;54.816;9.482;2022-12-11T10:06:02;100786.06;;;5.94;75.12
69957;BME280;57283;54.816;9.482;2022-12-11T10:08:39;100784.06;;;7.11;91.82
69957;BME280;57283;54.816;9.482;2022-12-11T10:11:30;100772.94;;;9.56;52.35
69957;BME280;57283;54.816;9.482;2022-12-11T10:14:08;100777.34;;;6.91;62.50
69957;BME280;57283;54.816;9.482;2022-12-11T10:16:40;100753.09;;;6.08;79.99
69957;BME280;57283;54.816;9.482;2022-12-11T10:19:14;100769.22;;;3.07;100.00
69957;BME280;57283;54.816;9.482;2022-12-11T10:21:44;100775.72;;;1.43;100.00
69957;BME280;57283;54.816;9.482;2022-12-11T10:24:19;100787.19;;;0.98;100.00
69957;BME280;57283;54.816;9.482;2022-12-11T10:27:14;100751.38;;;2.02;100.00
69957;BME280;57283;54.816;9.482;2022-12-11T10:29:42;100778.34;;;2.52;100.00
69957;BME280;57283;54.816;9.482;2022-12-11T10:32:20;100787.56;;;2.15;100.00
69957;BME280;57283;54.816;9.482;2022-12-11T10:34:53;100786.56;;;1.16;100.00
69957;BME280;57283;54.816;9.482;2022-12-11T10:37:22;100785.56;;;-0.58;100.00
69957;BME280;57283;54.816;9.482;2022-12-11T10:39:50;100762.56;;;0.50;100.00
69957;BME280;57283;54.816;9.482;2022-12-11T10:42:19;100785.44;;;-0.18;100.00
69957;BME280;57283;54.816;9.482;2022-12-11T10:44:56;100762.09;;;-0.31;100.00
69957;BME280;57283;54.816;9.482;2022-12-11T10:47:26;100769.38;;;0.48;100.00
69957;BME280;57283;54.816;9.482;2022-12-11T10:49:55;100764.47;;;0.63;100.00
69957;BME280;57283;54.816;9.482;2022-12-11T10:52:26;100731.75;;;0.53;100.00
69957;BME280;57283;54.816;9.482;2022-12-11T10:54:58;100762.97;;;0.81;100.00
69957;BME280;57283;54.816;9.482;2022-12-11T10:57:28;100769.28;;;0.42;100.00
69957;BME280;57283;54.816;9.482;2022-12-11T10:59:57;100771.13;;;0.52;100.00
69957;BME280;57283;54.816;9.482;2022-12-11T11:02:29;100775.88;;;0.25;100.00
69957;BME280;57283;54.816;9.482;2022-12-11T11:04:58;100766.03;;;0.55;100.00
69957;BME280;57283;54.816;9.482;2022-12-11T11:07:28;100760.09;;;1.27;100.00
69957;BME280;57283;54.816;9.482;2022-12-11T11:10:09;100765.53;;;1.55;100.00
69957;BME280;57283;54.816;9.482;2022-12-11T11:12:42;100774.94;;;0.79;100.00
69957;BME280;57283;54.816;9.482;2022-12-11T11:15:14;100772.41;;;0.82;100.00
69957;BME280;57283;54.816;9.482;2022-12-11T11:17:46;100778.66;;;0.99;100.00
69957;BME280;57283;54.816;9.482;2022-12-11T11:20:22;100742.34;;;1.50;100.00
69957;BME280;57283;54.816;9.482;2022-12-11T11:22:54;100744.31;;;1.79;100.00
69957;BME280;57283;54.816;9.482;2022-12-11T11:25:24;100727.53;;;1.29;100.00
69957;BME280;57283;54.816;9.482;2022-12-11T11:28:04;100758.47;;;2.29;100.00
69957;BME280;57283;54.816;9.482;2022-12-11T11:30:35;100758.59;;;2.48;100.00
69957;BME280;57283;54.816;9.482;2022-12-11T11:33:11;100769.34;;;1.12;100.00
69957;BME280;57283;54.816;9.482;2022-12-11T11:35:50;100763.75;;;1.48;100.00
69957;BME280;57283;54.816;9.482;2022-12-11T11:38:21;100722.56;;;2.60;100.00
69957;BME280;57283;54.816;9.482;2022-12-11T11:40:53;100752.94;;;3.17;100.00
69957;BME280;57283;54.816;9.482;2022-12-11T11:43:37;100746.16;;;3.65;100.00
69957;BME280;57283;54.816;9.482;2022-12-11T11:46:11;100735.84;;;3.80;100.00
69957;BME280;57283;54.816;9.482;2022-12-11T11:48:50;100733.22;;;4.26;100.00
69957;BME280;57283;54.816;9.482;2022-12-11T11:51:24;100726.31;;;4.37;100.00
69957;BME280;57283;54.816;9.482;2022-12-11T11:53:56;100723.47;;;5.13;100.00
69957;BME280;57283;54.816;9.482;2022-12-11T11:56:27;100693.56;;;4.49;100.00
69957;BME280;57283;54.816;9.482;2022-12-11T11:59:04;100715.09;;;4.41;100.00
69957;BME280;57283;54.816;9.482;2022-12-11T12:01:34;100721.78;;;5.03;100.00
69957;BME280;57283;54.816;9.482;2022-12-11T12:04:03;100710.22;;;5.61;100.00
69957;BME280;57283;54.816;9.482;2022-12-11T12:06:41;100699.16;;;6.44;89.20
69957;BME280;57283;54.816;9.482;2022-12-11T12:09:30;100704.91;;;5.84;81.60
69957;BME280;57283;54.816;9.482;2022-12-11T12:12:10;100722.91;;;4.10;91.98
69957;BME280;57283;54.816;9.482;2022-12-11T12:14:58;100729.75;;;3.46;100.00
69957;BME280;57283;54.816;9.482;2022-12-11T12:17:34;100724.63;;;4.30;100.00
69957;BME280;57283;54.816;9.482;2022-12-11T12:20:13;100717.53;;;4.94;100.00
69957;BME280;57283;54.816;9.482;2022-12-11T12:22:55;100715.84;;;4.82;100.00
69957;BME280;57283;54.816;9.482;2022-12-11T12:25:27;100715.91;;;4.56;100.00
69957;BME280;57283;54.816;9.482;2022-12-11T12:28:04;100720.28;;;4.38;100.00
69957;BME280;57283;54.816;9.482;2022-12-11T12:30:43;100716.00;;;4.11;100.00
69957;BME280;57283;54.816;9.482;2022-12-11T12:33:25;100716.81;;;4.39;100.00
69957;BME280;57283;54.816;9.482;2022-12-11T12:36:05;100713.41;;;4.21;100.00
69957;BME280;57283;54.816;9.482;2022-12-11T12:38:46;100716.72;;;4.75;100.00
69957;BME280;57283;54.816;9.482;2022-12-11T12:41:21;100729.47;;;5.22;100.00
69957;BME280;57283;54.816;9.482;2022-12-11T12:44:10;100730.66;;;3.65;100.00
69957;BME280;57283;54.816;9.482;2022-12-11T12:46:48;100730.44;;;2.92;100.00
69957;BME280;57283;54.816;9.482;2022-12-11T12:49:28;100733.09;;;3.10;100.00
69957;BME280;57283;54.816;9.482;2022-12-11T12:51:59;100732.34;;;4.39;100.00
69957;BME280;57283;54.816;9.482;2022-12-11T12:54:29;100637.59;;;4.26;100.00
69957;BME280;57283;54.816;9.482;2022-12-11T12:56:59;100696.88;;;4.77;100.00
69957;BME280;57283;54.816;9.482;2022-12-11T12:59:29;100734.66;;;6.39;100.00
69957;BME280;57283;54.816;9.482;2022-12-11T13:01:59;100731.31;;;7.07;87.35
69957;BME280;57283;54.816;9.482;2022-12-11T13:04:39;100719.47;;;6.85;82.04
69957;BME280;57283;54.816;9.482;2022-12-11T13:07:27;100723.38;;;7.18;82.35